Time;durP1;ratioP1;P1;durP2;ratioP2;P2;SDS_P1;SDS_P2;PMS_P1;PMS_P2;Temp;Humidity;BMP_temperature;BMP_pressure;BME280_temperature;BME280_humidity;BME280_pressure;Samples;Min_cycle;Max_cycle;Signal;HPM_P1;HPM_P2
2023/11/01 00:01:36;;;;;;;;;5.75;3.00;;;;;15.37;70.16;100041.59;5067181;28;68904;-72
2023/11/01 00:04:02;;;;;;;;;3.00;1.75;;;;;15.36;70.37;100041.69;5078465;28;45287;-72
2023/11/01 00:06:27;;;;;;;;;4.75;2.00;;;;;15.38;70.25;100039.81;5062575;28;45430;-72
2023/11/01 00:08:53;;;;;;;;;4.00;2.25;;;;;15.38;70.28;100038.00;5060871;28;45242;-72
2023/11/01 00:11:19;;;;;;;;;4.25;2.00;;;;;15.36;70.00;100028.50;5080281;28;45275;-72
2023/11/01 00:13:44;;;;;;;;;2.00;2.00;;;;;15.38;70.03;100031.91;5082465;28;45877;-72
2023/11/01 00:16:09;;;;;;;;;3.50;2.00;;;;;15.36;70.22;100028.50;5074837;28;46218;-72
2023/11/01 00:18:35;;;;;;;;;3.25;1.00;;;;;15.37;70.15;100028.44;5062150;28;45420;-72
2023/11/01 00:21:00;;;;;;;;;3.75;2.00;;;;;15.37;70.25;100020.50;5078851;28;69152;-73
2023/11/01 00:23:25;;;;;;;;;5.00;1.00;;;;;15.36;70.26;100017.97;5079667;28;71938;-73
2023/11/01 00:25:51;;;;;;;;;7.50;2.75;;;;;15.34;70.41;100015.41;5078076;28;71596;-72
2023/11/01 00:28:16;;;;;;;;;2.75;1.75;;;;;15.35;70.26;100019.75;5080172;28;72270;-73
2023/11/01 00:30:41;;;;;;;;;3.50;2.75;;;;;15.34;70.01;100030.41;5080556;28;45979;-73
2023/11/01 00:33:07;;;;;;;;;3.00;1.50;;;;;15.34;70.54;100025.97;5079107;28;56132;-71
2023/11/01 00:35:32;;;;;;;;;4.00;1.50;;;;;15.34;70.10;100020.69;5071960;28;52374;-72
2023/11/01 00:37:57;;;;;;;;;3.25;2.00;;;;;15.35;70.43;100013.63;5080250;28;45355;-72
2023/11/01 00:40:23;;;;;;;;;4.00;2.00;;;;;15.33;70.38;100013.72;5080095;28;69126;-73
2023/11/01 00:42:48;;;;;;;;;3.25;2.00;;;;;15.33;70.45;100018.13;5044782;28;45545;-72
2023/11/01 00:45:14;;;;;;;;;4.00;2.00;;;;;15.33;70.14;100004.97;5059645;28;66023;-73
2023/11/01 00:47:39;;;;;;;;;5.50;1.50;;;;;15.32;69.83;100003.28;5079941;28;45478;-71
2023/11/01 00:50:05;;;;;;;;;3.50;1.75;;;;;15.30;70.37;100000.72;5080273;28;68113;-72
2023/11/01 00:52:31;;;;;;;;;11.75;4.00;;;;;15.28;70.24;99996.47;5079855;28;45453;-71
2023/11/01 00:54:56;;;;;;;;;2.75;1.50;;;;;15.26;70.40;100008.88;5073845;28;45535;-72
2023/11/01 00:57:22;;;;;;;;;3.75;2.00;;;;;15.22;70.55;99996.84;5079822;28;72026;-72
2023/11/01 00:59:47;;;;;;;;;10.25;4.00;;;;;15.19;70.53;100004.00;5046482;28;45310;-72
2023/11/01 01:02:12;;;;;;;;;3.75;2.50;;;;;15.17;70.15;99994.47;5080403;28;45407;-71
2023/11/01 01:04:38;;;;;;;;;4.50;1.25;;;;;15.12;70.38;99986.84;5077472;28;75664;-72
2023/11/01 01:07:03;;;;;;;;;2.25;1.25;;;;;15.12;70.62;99988.59;5078306;28;45337;-72
2023/11/01 01:09:29;;;;;;;;;9.00;2.00;;;;;15.12;70.54;100004.41;5077302;28;62537;-72
2023/11/01 01:11:54;;;;;;;;;4.00;1.00;;;;;15.12;70.53;99999.13;5045926;28;45569;-71
2023/11/01 01:14:19;;;;;;;;;2.00;2.00;;;;;15.10;70.48;99999.25;5075723;28;75417;-72
2023/11/01 01:16:45;;;;;;;;;2.00;1.50;;;;;15.11;70.54;99994.81;5061964;28;72172;-73
2023/11/01 01:19:10;;;;;;;;;2.00;2.00;;;;;15.12;70.88;99999.13;5062241;28;45460;-73
2023/11/01 01:21:35;;;;;;;;;2.25;1.50;;;;;15.15;70.58;99991.91;5079294;28;72857;-72
2023/11/01 01:24:01;;;;;;;;;2.00;2.00;;;;;15.16;70.20;99990.97;5062344;28;54293;-71
2023/11/01 01:26:26;;;;;;;;;6.50;2.00;;;;;15.20;70.26;99986.38;5077826;28;45411;-72
2023/11/01 01:28:52;;;;;;;;;3.50;0.00;;;;;15.21;70.01;99977.53;5081665;28;45586;-71
2023/11/01 01:31:17;;;;;;;;;1.50;1.00;;;;;15.22;70.21;99983.66;5062094;28;73023;-72
2023/11/01 01:33:44;;;;;;;;;3.25;1.50;;;;;15.21;70.12;99980.19;5079579;28;46104;-72
2023/11/01 01:36:11;;;;;;;;;2.00;2.00;;;;;15.22;70.18;99976.59;5080200;28;45748;-72
2023/11/01 01:38:36;;;;;;;;;2.25;0.00;;;;;15.29;70.15;99980.56;5080885;28;45527;-73
2023/11/01 01:41:01;;;;;;;;;4.00;1.50;;;;;15.30;69.92;99981.44;5058572;28;55693;-72
2023/11/01 01:43:26;;;;;;;;;4.00;1.75;;;;;15.34;70.30;99975.03;5059614;28;59954;-73
2023/11/01 01:46:14;;;;;;;;;1.00;0.00;;;;;15.37;70.11;99977.50;5053478;28;73445;-72
2023/11/01 01:48:40;;;;;;;;;3.50;2.00;;;;;15.38;70.17;99974.75;5061136;28;45335;-72
2023/11/01 01:51:06;;;;;;;;;2.50;1.00;;;;;15.38;69.92;99966.84;5055887;28;45255;-72
2023/11/01 01:53:32;;;;;;;;;1.25;1.25;;;;;15.38;70.00;99960.72;5063297;28;45483;-72
2023/11/01 01:55:58;;;;;;;;;3.25;2.00;;;;;15.40;69.81;99960.63;5078715;28;45638;-72
2023/11/01 01:58:26;;;;;;;;;2.25;1.25;;;;;15.39;69.70;99949.25;5062431;28;45360;-72
2023/11/01 02:00:51;;;;;;;;;7.00;1.75;;;;;15.40;70.15;99948.28;5059747;28;45490;-72
2023/11/01 02:03:16;;;;;;;;;2.50;1.00;;;;;15.38;69.62;99943.09;5076896;28;45372;-72
2023/11/01 02:05:42;;;;;;;;;2.50;2.00;;;;;15.41;70.12;99946.53;5074666;28;73011;-72
2023/11/01 02:08:07;;;;;;;;;4.25;2.00;;;;;15.37;70.30;99935.31;5079329;28;45339;-72
2023/11/01 02:10:33;;;;;;;;;2.75;2.50;;;;;15.40;69.77;99932.47;5057333;28;73007;-72
2023/11/01 02:13:11;;;;;;;;;2.00;2.00;;;;;15.40;70.11;99924.56;5077511;28;67272;-72
2023/11/01 02:15:36;;;;;;;;;3.50;2.00;;;;;15.38;70.09;99924.66;5074804;28;45485;-72
2023/11/01 02:18:02;;;;;;;;;2.00;2.00;;;;;15.37;69.89;99915.06;5061201;28;45466;-73
2023/11/01 02:20:28;;;;;;;;;2.00;0.25;;;;;15.38;69.79;99916.75;5061339;28;45468;-72
2023/11/01 02:22:55;;;;;;;;;2.00;2.00;;;;;15.37;70.20;99904.50;5077747;28;67008;-72
2023/11/01 02:25:21;;;;;;;;;3.50;1.75;;;;;15.41;70.20;99896.44;5055424;28;45488;-71
2023/11/01 02:27:46;;;;;;;;;2.50;1.00;;;;;15.41;69.75;99899.91;5079255;28;55458;-72
2023/11/01 02:30:16;;;;;;;;;4.00;2.00;;;;;15.41;69.92;99894.63;5080370;28;45485;-71
2023/11/01 02:32:42;;;;;;;;;5.25;1.75;;;;;15.39;70.18;99885.97;5062915;28;46493;-72
2023/11/01 02:35:08;;;;;;;;;4.00;2.00;;;;;15.37;70.09;99874.69;5074878;28;45447;-72
2023/11/01 02:37:33;;;;;;;;;6.75;4.75;;;;;15.33;70.04;99881.91;5078370;28;61245;-72
2023/11/01 02:39:59;;;;;;;;;4.00;2.00;;;;;15.31;70.10;99870.59;5053951;28;45477;-73
2023/11/01 02:42:24;;;;;;;;;3.00;2.75;;;;;15.36;69.81;99870.34;5075558;28;74185;-73
2023/11/01 02:44:49;;;;;;;;;3.25;1.25;;;;;15.35;70.19;99866.84;5056636;28;45457;-72
2023/11/01 02:47:15;;;;;;;;;5.75;1.25;;;;;15.34;70.14;99857.25;5048536;28;67132;-73
2023/11/01 02:49:40;;;;;;;;;7.25;4.75;;;;;15.33;69.89;99855.56;5078044;28;72276;-72
2023/11/01 02:52:05;;;;;;;;;2.75;1.00;;;;;15.33;70.27;99844.16;5059821;28;77650;-72
2023/11/01 02:54:30;;;;;;;;;1.50;1.00;;;;;15.31;69.92;99851.31;5076235;28;73310;-72
2023/11/01 02:56:57;;;;;;;;;3.75;1.75;;;;;15.26;70.22;99841.03;5078025;28;45478;-72
2023/11/01 02:59:22;;;;;;;;;1.25;1.00;;;;;15.25;69.90;99842.00;5075435;28;45368;-72
2023/11/01 03:01:49;;;;;;;;;6.00;2.00;;;;;15.25;69.99;99842.00;5077196;28;75084;-72
2023/11/01 03:04:14;;;;;;;;;4.00;1.25;;;;;15.25;70.10;99834.09;5056029;28;46128;-71
2023/11/01 03:06:40;;;;;;;;;4.00;1.00;;;;;15.24;70.26;99842.06;5077412;28;67782;-72
2023/11/01 03:09:05;;;;;;;;;3.25;1.00;;;;;15.16;70.18;99819.66;5077491;28;56869;-72
2023/11/01 03:11:31;;;;;;;;;3.25;1.00;;;;;15.22;70.23;99822.88;5075966;28;68720;-72
2023/11/01 03:13:56;;;;;;;;;1.50;1.50;;;;;15.25;70.23;99833.25;5074908;28;46241;-71
2023/11/01 03:16:21;;;;;;;;;2.25;1.50;;;;;15.22;70.16;99821.09;5055868;28;69164;-72
2023/11/01 03:18:47;;;;;;;;;2.25;1.75;;;;;15.23;70.20;99827.19;5059039;28;72149;-72
2023/11/01 03:21:12;;;;;;;;;1.50;1.25;;;;;15.22;70.31;99821.09;5078269;28;45523;-72
2023/11/01 03:23:37;;;;;;;;;3.50;2.00;;;;;15.19;70.11;99816.84;5075928;28;45434;-72
2023/11/01 03:26:03;;;;;;;;;3.00;1.25;;;;;15.26;70.21;99821.75;5076141;28;45260;-72
2023/11/01 03:28:28;;;;;;;;;2.75;2.75;;;;;15.26;70.30;99811.19;5078773;28;47132;-72
2023/11/01 03:30:54;;;;;;;;;4.75;2.00;;;;;15.28;70.14;99819.84;5078529;28;75562;-72
2023/11/01 03:33:19;;;;;;;;;3.75;1.75;;;;;15.26;70.32;99813.84;5061576;28;53497;-72
2023/11/01 03:35:44;;;;;;;;;3.00;2.00;;;;;15.24;70.32;99803.38;5077485;28;56113;-72
2023/11/01 03:38:10;;;;;;;;;3.00;1.75;;;;;15.19;70.02;99797.53;5077866;28;73151;-72
2023/11/01 03:40:35;;;;;;;;;1.50;1.50;;;;;15.18;70.12;99801.97;5077756;28;75013;-72
2023/11/01 03:43:00;;;;;;;;;2.75;2.75;;;;;15.18;70.22;99804.59;5078635;28;45473;-72
2023/11/01 03:45:26;;;;;;;;;3.75;1.00;;;;;15.17;70.03;99794.16;5073794;28;64713;-72
2023/11/01 03:47:52;;;;;;;;;4.50;1.50;;;;;15.14;70.38;99787.28;5076741;28;73154;-72
2023/11/01 03:50:17;;;;;;;;;2.75;2.25;;;;;15.16;70.15;99788.03;5052937;28;47436;-73
2023/11/01 03:52:43;;;;;;;;;3.25;1.75;;;;;15.14;70.55;99794.38;5071506;28;73000;-71
2023/11/01 03:55:11;;;;;;;;;3.50;1.50;;;;;15.14;70.05;99792.56;5057881;28;45446;-73
2023/11/01 03:57:37;;;;;;;;;1.00;1.00;;;;;15.13;70.11;99782.13;5056727;28;45450;-73
2023/11/01 04:00:03;;;;;;;;;3.00;2.00;;;;;15.11;70.23;99786.63;5075979;28;45896;-72
2023/11/01 04:02:28;;;;;;;;;3.00;2.50;;;;;15.09;70.27;99778.81;5078763;28;45360;-72
2023/11/01 04:04:53;;;;;;;;;6.00;2.00;;;;;15.09;70.38;99765.66;5071843;28;69395;-73
2023/11/01 04:07:19;;;;;;;;;3.50;2.00;;;;;15.07;70.06;99757.00;5077996;28;45571;-72
2023/11/01 04:09:44;;;;;;;;;2.50;1.00;;;;;15.02;70.09;99758.22;5076056;28;45496;-73
2023/11/01 04:12:10;;;;;;;;;3.50;1.00;;;;;14.98;70.48;99763.66;5076056;28;69599;-72
2023/11/01 04:14:35;;;;;;;;;1.50;1.50;;;;;14.91;70.41;99759.72;5072841;28;66742;-72
2023/11/01 04:17:00;;;;;;;;;3.25;2.00;;;;;14.90;70.36;99757.19;5077461;28;63285;-73
2023/11/01 04:19:25;;;;;;;;;2.75;1.00;;;;;14.88;70.47;99751.16;5076122;28;55567;-72
2023/11/01 04:21:51;;;;;;;;;6.25;1.00;;;;;14.86;70.53;99750.41;5077122;28;72212;-73
2023/11/01 04:24:16;;;;;;;;;6.50;1.50;;;;;14.77;70.81;99751.81;5063430;28;59391;-72
2023/11/01 04:26:41;;;;;;;;;2.75;1.00;;;;;14.75;70.48;99751.03;5075658;28;45381;-72
2023/11/01 04:29:07;;;;;;;;;2.25;2.00;;;;;14.69;70.52;99738.25;5075088;28;47227;-72
2023/11/01 04:31:33;;;;;;;;;6.75;3.00;;;;;14.64;70.40;99732.41;5059667;28;45359;-73
2023/11/01 04:33:58;;;;;;;;;2.75;1.00;;;;;14.58;70.77;99723.09;5057835;28;68825;-72
2023/11/01 04:36:24;;;;;;;;;3.00;2.00;;;;;14.58;70.42;99723.09;5053483;28;45375;-72
2023/11/01 04:38:51;;;;;;;;;2.00;2.00;;;;;14.55;70.82;99720.59;5077623;28;46533;-72
2023/11/01 04:41:19;;;;;;;;;8.25;8.00;;;;;14.50;70.66;99706.84;5057930;28;45832;-73
2023/11/01 04:43:47;;;;;;;;;4.00;3.00;;;;;14.51;70.90;99708.56;5057778;28;45759;-72
2023/11/01 04:46:13;;;;;;;;;4.25;1.25;;;;;14.44;70.87;99711.56;5056240;28;46774;-72
2023/11/01 04:48:38;;;;;;;;;4.50;3.00;;;;;14.47;70.82;99707.06;5058843;28;47016;-72
2023/11/01 04:51:04;;;;;;;;;3.75;1.50;;;;;14.43;71.14;99695.88;5079762;28;64889;-72
2023/11/01 04:53:30;;;;;;;;;5.50;1.00;;;;;14.40;71.01;99703.94;5082004;28;45211;-72
2023/11/01 04:55:55;;;;;;;;;2.75;2.00;;;;;14.36;70.96;99699.78;5059832;28;66412;-71
2023/11/01 04:58:21;;;;;;;;;5.50;2.50;;;;;14.36;71.08;99708.53;5079046;28;46353;-72
2023/11/01 05:00:47;;;;;;;;;2.00;2.00;;;;;14.33;70.92;99692.09;5078868;28;45533;-72
2023/11/01 05:03:13;;;;;;;;;2.50;1.00;;;;;14.30;71.12;99693.09;5080471;28;45476;-72
2023/11/01 05:05:38;;;;;;;;;4.25;1.00;;;;;14.27;71.11;99679.28;5057708;28;45479;-72
2023/11/01 05:08:04;;;;;;;;;1.75;1.75;;;;;14.26;71.00;99674.97;5077195;28;67242;-72
2023/11/01 05:10:29;;;;;;;;;1.75;1.00;;;;;14.23;70.85;99674.19;5080678;28;46783;-72
2023/11/01 05:12:57;;;;;;;;;3.00;1.25;;;;;14.20;71.15;99661.25;5077573;28;45431;-72
2023/11/01 05:15:22;;;;;;;;;2.00;2.00;;;;;14.17;71.48;99663.22;5076493;28;45509;-72
2023/11/01 05:17:48;;;;;;;;;5.00;2.00;;;;;14.11;71.43;99661.78;5079818;28;51374;-73
2023/11/01 05:20:13;;;;;;;;;2.75;1.75;;;;;14.09;71.63;99663.63;5079061;28;45260;-73
2023/11/01 05:22:38;;;;;;;;;1.75;1.50;;;;;14.02;71.73;99649.16;5081088;28;45366;-72
2023/11/01 05:25:13;;;;;;;;;2.00;2.00;;;;;14.02;71.64;99657.03;5078650;28;59703;-69
2023/11/01 05:27:41;;;;;;;;;5.25;3.00;;;;;13.97;71.58;99653.84;5080074;28;46180;-73
2023/11/01 05:30:09;;;;;;;;;3.50;1.50;;;;;13.95;72.27;99645.19;5077570;28;45881;-72
2023/11/01 05:32:35;;;;;;;;;3.00;1.00;;;;;13.93;71.91;99647.06;5061148;28;45282;-72
2023/11/01 05:35:00;;;;;;;;;5.50;2.75;;;;;13.91;71.85;99641.88;5059010;28;54478;-72
2023/11/01 05:37:25;;;;;;;;;3.50;2.00;;;;;13.86;72.55;99636.06;5078653;28;75530;-72
2023/11/01 05:39:51;;;;;;;;;34.50;26.00;;;;;13.85;72.41;99629.13;5077366;28;72534;-72
2023/11/01 05:42:16;;;;;;;;;5.75;3.75;;;;;13.83;71.94;99629.19;5059661;28;65330;-72
2023/11/01 05:44:41;;;;;;;;;9.75;7.00;;;;;13.77;72.47;99619.03;5057639;28;60752;-72
2023/11/01 05:47:07;;;;;;;;;2.25;1.00;;;;;13.75;72.58;99617.44;5080076;28;75400;-71
2023/11/01 05:49:32;;;;;;;;;5.50;2.00;;;;;13.77;72.13;99612.94;5080751;28;46342;-72
2023/11/01 05:51:57;;;;;;;;;3.75;1.50;;;;;13.74;72.61;99611.34;5042164;28;45506;-72
2023/11/01 05:54:23;;;;;;;;;1.25;1.25;;;;;13.72;72.78;99612.34;5073179;28;72034;-72
2023/11/01 05:56:48;;;;;;;;;2.50;1.75;;;;;13.73;72.19;99611.41;5080876;28;46914;-71
2023/11/01 05:59:14;;;;;;;;;3.75;1.75;;;;;13.71;72.83;99605.41;5073868;28;55088;-71
2023/11/01 06:01:40;;;;;;;;;1.00;1.00;;;;;13.69;72.73;99600.25;5058510;28;45338;-71
2023/11/01 06:04:06;;;;;;;;;1.25;1.25;;;;;13.67;72.36;99597.69;5075234;28;45505;-72
2023/11/01 06:06:31;;;;;;;;;3.25;1.50;;;;;13.67;72.63;99591.59;5076735;28;45934;-72
2023/11/01 06:08:57;;;;;;;;;2.25;1.00;;;;;13.64;72.99;99591.78;5078725;28;48809;-71
2023/11/01 06:11:24;;;;;;;;;3.75;2.50;;;;;13.67;72.76;99592.44;5061140;28;69333;-71
2023/11/01 06:13:49;;;;;;;;;3.75;3.00;;;;;13.66;72.68;99587.25;5058311;28;45578;-71
2023/11/01 06:16:15;;;;;;;;;4.50;1.00;;;;;13.68;72.66;99580.13;5058512;28;45428;-72
2023/11/01 06:18:40;;;;;;;;;3.00;1.00;;;;;13.68;72.63;99572.25;5059060;28;45337;-71
2023/11/01 06:21:06;;;;;;;;;5.00;2.00;;;;;13.67;72.23;99568.78;5077381;28;68648;-71
2023/11/01 06:23:35;;;;;;;;;4.75;2.50;;;;;13.67;72.41;99568.78;5043981;28;45331;-72
2023/11/01 06:26:01;;;;;;;;;2.50;1.25;;;;;13.65;72.41;99568.03;5078034;28;45232;-71
2023/11/01 06:28:26;;;;;;;;;5.50;2.00;;;;;13.62;72.28;99565.56;5079855;28;45427;-72
2023/11/01 06:30:52;;;;;;;;;3.50;1.00;;;;;13.62;72.30;99560.31;5062301;28;45495;-71
2023/11/01 06:33:17;;;;;;;;;2.50;1.00;;;;;13.62;72.26;99557.69;5060719;28;73128;-71
2023/11/01 06:35:42;;;;;;;;;2.25;2.25;;;;;13.61;72.31;99565.66;5043182;28;48054;-71
2023/11/01 06:38:08;;;;;;;;;1.25;1.25;;;;;13.60;72.04;99564.81;5059178;28;71994;-72
2023/11/01 06:40:33;;;;;;;;;3.00;1.00;;;;;13.55;72.28;99556.34;5059875;28;67192;-71
2023/11/01 06:42:58;;;;;;;;;3.00;2.00;;;;;13.59;72.40;99571.00;5057952;28;60910;-71
2023/11/01 06:45:24;;;;;;;;;2.25;1.75;;;;;13.57;72.61;99580.75;5075873;28;74439;-72
2023/11/01 06:47:49;;;;;;;;;1.25;1.00;;;;;13.59;72.49;99576.25;5073043;28;45280;-71
2023/11/01 06:50:15;;;;;;;;;5.75;2.00;;;;;13.57;72.32;99579.91;5078543;28;46835;-71
2023/11/01 06:52:44;;;;;;;;;2.00;1.50;;;;;13.58;72.54;99577.22;5074320;28;67156;-70
2023/11/01 06:55:13;;;;;;;;;3.00;2.00;;;;;13.59;72.06;99576.25;5076708;28;46101;-71
2023/11/01 06:57:38;;;;;;;;;2.25;2.25;;;;;13.58;72.55;99574.56;5055657;28;45371;-71
2023/11/01 07:00:05;;;;;;;;;6.75;5.75;;;;;13.61;72.51;99584.06;5076442;28;45578;-71
2023/11/01 07:02:30;;;;;;;;;3.00;1.00;;;;;13.61;72.21;99579.63;5076711;28;45593;-71
2023/11/01 07:04:56;;;;;;;;;4.00;1.00;;;;;13.61;72.49;99576.16;5057934;28;51930;-71
2023/11/01 07:07:22;;;;;;;;;2.00;2.00;;;;;13.64;72.15;99583.88;5078506;28;73548;-71
2023/11/01 07:09:47;;;;;;;;;2.25;1.50;;;;;13.64;72.32;99587.34;5059861;28;45161;-71
2023/11/01 07:12:13;;;;;;;;;3.00;2.00;;;;;13.66;72.43;99576.75;5080050;28;45470;-71
2023/11/01 07:14:38;;;;;;;;;3.25;2.25;;;;;13.65;72.19;99575.91;5066656;28;74390;-71
2023/11/01 07:17:03;;;;;;;;;1.75;1.75;;;;;13.66;72.20;99574.97;5056392;28;73275;-71
2023/11/01 07:19:29;;;;;;;;;4.50;2.00;;;;;13.67;71.78;99571.41;5059401;28;69329;-71
2023/11/01 07:21:54;;;;;;;;;3.50;2.00;;;;;13.69;71.92;99571.31;5078038;28;45529;-71
2023/11/01 07:24:19;;;;;;;;;3.75;2.50;;;;;13.67;71.75;99570.56;5059230;28;45277;-71
2023/11/01 07:26:45;;;;;;;;;1.75;1.25;;;;;13.68;72.05;99564.34;5059068;28;45982;-71
2023/11/01 07:29:10;;;;;;;;;4.00;2.75;;;;;13.66;71.64;99555.72;5058059;28;69324;-71
2023/11/01 07:31:35;;;;;;;;;2.00;2.00;;;;;13.67;71.89;99558.25;5058765;28;45488;-71
2023/11/01 07:34:01;;;;;;;;;1.50;1.00;;;;;13.70;71.51;99551.13;5067157;28;45455;-71
2023/11/01 07:36:26;;;;;;;;;4.00;1.50;;;;;13.70;71.63;99551.13;5074650;28;72222;-71
2023/11/01 07:38:52;;;;;;;;;3.00;2.00;;;;;13.65;71.38;99544.34;5077669;28;45428;-71
2023/11/01 07:41:17;;;;;;;;;4.50;2.00;;;;;13.71;71.38;99540.53;5052919;28;54613;-71
2023/11/01 07:43:42;;;;;;;;;4.00;2.00;;;;;13.71;71.30;99540.53;5074931;28;62123;-71
2023/11/01 07:46:08;;;;;;;;;3.75;2.25;;;;;13.73;71.49;99543.06;5074953;28;73170;-71
2023/11/01 07:48:35;;;;;;;;;2.00;1.75;;;;;13.75;70.83;99542.03;5060716;28;45350;-71
2023/11/01 07:51:05;;;;;;;;;3.25;1.50;;;;;13.77;71.13;99534.88;5077490;28;45282;-71
2023/11/01 07:53:31;;;;;;;;;2.50;1.00;;;;;13.78;70.50;99533.13;5055859;28;46238;-71
2023/11/01 07:55:56;;;;;;;;;1.50;1.50;;;;;13.79;70.59;99530.41;5077919;28;45390;-71
2023/11/01 07:58:22;;;;;;;;;3.00;1.00;;;;;13.80;70.40;99518.09;5064448;28;52741;-71
2023/11/01 08:00:47;;;;;;;;;2.75;1.50;;;;;13.80;70.48;99523.34;5074288;28;73003;-71
2023/11/01 08:03:12;;;;;;;;;3.50;1.75;;;;;13.80;70.39;99515.47;5074806;28;66937;-71
2023/11/01 08:05:38;;;;;;;;;1.75;1.75;;;;;13.80;70.22;99512.84;5071458;28;73206;-71
2023/11/01 08:08:03;;;;;;;;;3.50;2.00;;;;;13.83;70.01;99502.97;5058164;28;45394;-70
2023/11/01 08:10:29;;;;;;;;;1.50;1.50;;;;;13.89;70.19;99508.81;5077204;28;47048;-71
2023/11/01 08:12:54;;;;;;;;;3.25;2.75;;;;;13.92;69.92;99509.47;5058331;28;47174;-71
2023/11/01 08:15:20;;;;;;;;;2.50;1.75;;;;;13.97;69.80;99502.16;5071741;28;72133;-71
2023/11/01 08:17:45;;;;;;;;;2.00;2.00;;;;;14.03;69.71;99511.44;5076969;28;69559;-71
2023/11/01 08:20:11;;;;;;;;;3.00;2.50;;;;;14.07;69.22;99505.03;5042395;28;71973;-72
2023/11/01 08:22:36;;;;;;;;;1.00;1.00;;;;;14.11;69.00;99500.44;5059546;28;46556;-72
2023/11/01 08:25:02;;;;;;;;;1.50;1.00;;;;;14.14;69.45;99492.38;5074426;28;46522;-72
2023/11/01 08:27:28;;;;;;;;;5.50;3.00;;;;;14.17;68.38;99493.03;5080844;28;45704;-72
2023/11/01 08:29:54;;;;;;;;;2.00;2.00;;;;;14.24;68.47;99496.13;5080034;28;45509;-71
2023/11/01 08:32:19;;;;;;;;;2.25;1.50;;;;;14.28;68.72;99476.56;5079194;28;45529;-72
2023/11/01 08:34:45;;;;;;;;;4.25;1.00;;;;;14.33;67.95;99479.75;5058133;28;45423;-72
2023/11/01 08:37:10;;;;;;;;;1.00;1.00;;;;;14.38;67.87;99476.84;5062159;28;46018;-71
2023/11/01 08:39:35;;;;;;;;;1.50;1.00;;;;;14.40;68.05;99474.94;5080159;28;72879;-71
2023/11/01 08:42:02;;;;;;;;;4.75;1.75;;;;;14.49;67.66;99478.78;5059187;28;70673;-72
2023/11/01 08:44:27;;;;;;;;;2.25;2.00;;;;;14.54;67.68;99474.09;5057547;28;45488;-73
2023/11/01 08:46:53;;;;;;;;;2.00;1.25;;;;;14.62;67.45;99474.44;5060901;28;61124;-73
2023/11/01 08:49:19;;;;;;;;;3.75;1.00;;;;;14.69;66.91;99467.00;5057516;28;47147;-73
2023/11/01 08:51:46;;;;;;;;;2.50;0.50;;;;;14.73;65.78;99469.34;5079098;28;46158;-72
2023/11/01 08:54:11;;;;;;;;;4.25;1.75;;;;;14.80;65.38;99461.88;5072613;28;45403;-73
2023/11/01 08:56:36;;;;;;;;;3.50;2.00;;;;;14.86;66.57;99456.22;5057060;28;45447;-74
2023/11/01 08:59:05;;;;;;;;;2.50;1.75;;;;;14.90;66.02;99462.97;5071668;28;45510;-70
2023/11/01 09:01:31;;;;;;;;;1.00;1.00;;;;;14.91;65.13;99464.69;5041905;28;46018;-73
2023/11/01 09:03:57;;;;;;;;;5.50;1.50;;;;;14.90;65.45;99464.78;5074269;28;45822;-72
2023/11/01 09:06:22;;;;;;;;;5.50;2.00;;;;;14.90;65.46;99462.13;5077924;28;45504;-72
2023/11/01 09:08:48;;;;;;;;;2.00;2.00;;;;;14.90;64.72;99464.78;5077763;28;47204;-72
2023/11/01 09:11:13;;;;;;;;;4.75;1.00;;;;;14.91;65.56;99467.31;5047090;28;48288;-73
2023/11/01 09:13:39;;;;;;;;;3.00;1.25;;;;;14.93;65.23;99467.22;5062222;28;45979;-72
2023/11/01 09:16:04;;;;;;;;;4.00;2.75;;;;;14.95;65.27;99460.06;5077453;28;53358;-73
2023/11/01 09:18:30;;;;;;;;;4.25;2.00;;;;;14.96;65.49;99459.09;5080310;28;45597;-73
2023/11/01 09:20:55;;;;;;;;;2.50;2.00;;;;;15.00;64.98;99453.53;5062293;28;75313;-72
2023/11/01 09:23:21;;;;;;;;;2.50;0.75;;;;;15.05;65.04;99444.47;5062282;28;45387;-72
2023/11/01 09:25:46;;;;;;;;;3.00;1.00;;;;;15.03;63.36;99436.66;5055585;28;45470;-72
2023/11/01 09:28:11;;;;;;;;;1.25;1.25;;;;;15.11;64.80;99444.06;5045225;28;46330;-70
2023/11/01 09:30:37;;;;;;;;;5.25;1.00;;;;;15.14;64.43;99443.88;5080843;28;45298;-72
2023/11/01 09:33:02;;;;;;;;;3.00;3.00;;;;;15.14;63.90;99443.88;5076776;28;45426;-70
2023/11/01 09:35:31;;;;;;;;;1.00;1.00;;;;;15.14;64.64;99439.44;5074716;28;55088;-71
2023/11/01 09:37:56;;;;;;;;;1.75;1.75;;;;;15.18;64.31;99445.34;5056835;28;45256;-71
2023/11/01 09:40:24;;;;;;;;;4.50;1.00;;;;;15.22;64.44;99446.81;5075699;28;73449;-72
2023/11/01 09:42:51;;;;;;;;;3.25;1.00;;;;;15.17;63.79;99443.66;5055511;28;45541;-71
2023/11/01 09:45:17;;;;;;;;;1.00;1.00;;;;;15.19;64.47;99441.75;5053459;28;45345;-71
2023/11/01 09:47:43;;;;;;;;;2.25;2.00;;;;;15.21;64.10;99442.53;5047820;28;45305;-73
2023/11/01 09:50:09;;;;;;;;;5.50;1.00;;;;;15.24;64.68;99444.94;5057475;28;46110;-72
2023/11/01 09:52:35;;;;;;;;;1.00;1.00;;;;;15.27;64.78;99441.25;5073567;28;45521;-71
2023/11/01 09:55:01;;;;;;;;;1.25;1.25;;;;;15.29;64.91;99445.47;5055149;28;45323;-72
2023/11/01 09:57:27;;;;;;;;;1.00;1.00;;;;;15.32;64.36;99457.63;5059467;28;45310;-71
2023/11/01 09:59:53;;;;;;;;;3.00;3.00;;;;;15.32;64.54;99449.72;5056904;28;67104;-72
2023/11/01 10:02:18;;;;;;;;;2.50;1.75;;;;;15.31;64.52;99442.72;5055711;28;45633;-71
2023/11/01 10:04:44;;;;;;;;;4.00;2.25;;;;;15.32;64.92;99439.16;5054273;28;45509;-71
2023/11/01 10:07:10;;;;;;;;;2.25;2.00;;;;;15.32;65.05;99431.25;5057444;28;45508;-71
2023/11/01 10:09:36;;;;;;;;;2.00;1.25;;;;;15.35;64.96;99438.94;5051896;28;46195;-71
2023/11/01 10:12:03;;;;;;;;;2.50;1.50;;;;;15.37;65.33;99435.25;5058617;28;46867;-70
2023/11/01 10:14:30;;;;;;;;;2.00;1.25;;;;;15.41;65.40;99430.63;5045931;28;45595;-71
2023/11/01 10:16:56;;;;;;;;;4.75;2.00;;;;;15.44;65.01;99424.28;5054998;28;45862;-72
2023/11/01 10:19:22;;;;;;;;;2.25;1.00;;;;;15.46;64.88;99425.88;5055997;28;46345;-68
2023/11/01 10:21:47;;;;;;;;;1.50;1.25;;;;;15.47;64.85;99424.09;5057604;28;45593;-69
2023/11/01 10:24:13;;;;;;;;;4.00;3.00;;;;;15.49;65.08;99424.81;5056183;28;57126;-69
2023/11/01 10:26:38;;;;;;;;;5.50;2.00;;;;;15.49;64.65;99419.53;5054137;28;60573;-69
2023/11/01 10:29:04;;;;;;;;;4.00;2.00;;;;;15.49;65.02;99416.91;5057201;28;46668;-68
2023/11/01 10:31:30;;;;;;;;;1.75;1.00;;;;;15.47;64.65;99406.47;5056359;28;45598;-68
2023/11/01 10:33:55;;;;;;;;;1.00;1.00;;;;;15.48;65.05;99402.06;5056270;28;45409;-68
2023/11/01 10:36:21;;;;;;;;;1.50;1.50;;;;;15.49;64.96;99395.81;5039523;28;45745;-68
2023/11/01 10:38:47;;;;;;;;;2.75;2.75;;;;;15.50;65.31;99385.16;5056532;28;45331;-69
2023/11/01 10:41:14;;;;;;;;;3.00;1.25;;;;;15.52;65.12;99385.06;5055418;28;45394;-69
2023/11/01 10:43:40;;;;;;;;;2.00;1.00;;;;;15.50;65.34;99387.81;5057306;28;45501;-73
2023/11/01 10:46:06;;;;;;;;;2.00;2.00;;;;;15.47;65.15;99388.00;5051828;28;73189;-70
2023/11/01 10:48:31;;;;;;;;;3.75;1.00;;;;;15.43;65.70;99388.34;5056573;28;45471;-72
2023/11/01 10:50:57;;;;;;;;;1.50;1.50;;;;;15.40;65.92;99385.91;5055577;28;46390;-73
2023/11/01 10:53:23;;;;;;;;;1.75;1.75;;;;;15.36;65.91;99380.84;5069484;28;45592;-71
2023/11/01 10:55:55;;;;;;;;;1.75;1.00;;;;;15.34;66.59;99380.09;5051730;28;45292;-83
2023/11/01 10:58:27;;;;;;;;;2.00;2.00;;;;;15.33;66.49;99385.47;5054133;28;64534;-72
2023/11/01 11:00:57;;;;;;;;;2.25;0.75;;;;;15.34;66.69;99381.91;5054908;28;45602;-72
2023/11/01 11:03:28;;;;;;;;;2.00;2.00;;;;;15.33;66.57;99383.72;5056662;28;45406;-75
2023/11/01 11:05:54;;;;;;;;;2.00;2.00;;;;;15.33;66.54;99370.53;5054553;28;45570;-74
2023/11/01 11:08:20;;;;;;;;;3.75;2.00;;;;;15.32;66.30;99373.28;5056537;28;46515;-71
2023/11/01 11:10:45;;;;;;;;;1.50;1.50;;;;;15.29;66.57;99376.09;5035984;28;58413;-71
2023/11/01 11:13:16;;;;;;;;;1.50;1.50;;;;;15.26;66.46;99363.13;5038941;28;45660;-74
2023/11/01 11:15:51;;;;;;;;;3.00;1.25;;;;;15.21;66.83;99360.81;5056025;28;45379;-73
2023/11/01 11:18:20;;;;;;;;;2.75;2.00;;;;;15.17;66.75;99369.88;5058494;28;46226;-71
2023/11/01 11:20:46;;;;;;;;;3.50;3.00;;;;;15.09;66.92;99365.13;5056875;28;45489;-75
2023/11/01 11:23:16;;;;;;;;;1.50;1.50;;;;;15.06;67.04;99351.31;5047941;28;63286;-74
2023/11/01 11:25:45;;;;;;;;;1.00;1.00;;;;;15.04;67.48;99345.31;5051865;28;45767;-74